Time;durP1;ratioP1;P1;durP2;ratioP2;P2;SDS_P1;SDS_P2;PMS_P1;PMS_P2;Temp;Humidity;BMP_temperature;BMP_pressure;BME280_temperature;BME280_humidity;BME280_pressure;Samples;Min_cycle;Max_cycle;Signal;HPM_P1;HPM_P2
2022/09/30 00:01:05;;;;;;;11.02;7.10;;;;;;;;;;5009162;28;20091;-64
2022/09/30 00:03:32;;;;;;;10.55;5.85;;;;;;;;;;5009234;28;20041;-67
2022/09/30 00:05:59;;;;;;;10.70;6.53;;;;;;;;;;5007966;28;20030;-65
2022/09/30 00:08:26;;;;;;;12.20;6.15;;;;;;;;;;5006473;28;20148;-67
2022/09/30 00:11:07;;;;;;;11.35;6.38;;;;;;;;;;5002713;28;20029;-66
2022/09/30 00:13:35;;;;;;;10.82;5.57;;;;;;;;;;5003679;28;22506;-67
2022/09/30 00:16:02;;;;;;;10.32;6.25;;;;;;;;;;5005372;28;20082;-65
2022/09/30 00:18:29;;;;;;;17.73;6.65;;;;;;;;;;5009456;28;20541;-66
2022/09/30 00:20:55;;;;;;;10.80;5.95;;;;;;;;;;5010667;28;20086;-66
2022/09/30 00:23:23;;;;;;;9.77;5.32;;;;;;;;;;5008237;28;21623;-66
2022/09/30 00:25:49;;;;;;;11.18;5.57;;;;;;;;;;5008542;28;20458;-66
2022/09/30 00:28:16;;;;;;;10.73;6.35;;;;;;;;;;4993441;28;20514;-66
2022/09/30 00:30:43;;;;;;;10.77;6.30;;;;;;;;;;4992688;28;20046;-65
2022/09/30 00:33:10;;;;;;;9.20;5.97;;;;;;;;;;5006546;28;20100;-68
2022/09/30 00:35:37;;;;;;;10.73;6.57;;;;;;;;;;5008560;28;20057;-67
2022/09/30 00:38:03;;;;;;;12.70;6.10;;;;;;;;;;5006321;28;20057;-66
2022/09/30 00:40:30;;;;;;;15.10;6.65;;;;;;;;;;5008620;28;20123;-66
2022/09/30 00:42:59;;;;;;;11.60;6.50;;;;;;;;;;5009156;28;20038;-67
2022/09/30 00:45:28;;;;;;;10.95;6.07;;;;;;;;;;5009459;28;20077;-65
2022/09/30 00:47:59;;;;;;;10.50;6.28;;;;;;;;;;5008729;28;20370;-64
2022/09/30 00:50:38;;;;;;;11.65;5.80;;;;;;;;;;5009050;28;20041;-64
2022/09/30 00:53:22;;;;;;;11.38;6.13;;;;;;;;;;5008373;28;20042;-65
2022/09/30 00:56:02;;;;;;;11.75;6.05;;;;;;;;;;5008003;28;20050;-66
2022/09/30 00:58:35;;;;;;;13.13;5.57;;;;;;;;;;5009351;28;20053;-66
2022/09/30 01:01:02;;;;;;;9.80;5.55;;;;;;;;;;5008614;28;20498;-66
2022/09/30 01:03:39;;;;;;;9.77;6.07;;;;;;;;;;5008227;28;20499;-66
2022/09/30 01:06:06;;;;;;;10.95;5.75;;;;;;;;;;5008641;28;20042;-66
2022/09/30 01:08:35;;;;;;;11.95;5.85;;;;;;;;;;5010821;28;20136;-64
2022/09/30 01:11:02;;;;;;;10.48;5.40;;;;;;;;;;5016660;28;20558;-66
2022/09/30 01:13:30;;;;;;;9.15;5.57;;;;;;;;;;5004881;28;20037;-67
2022/09/30 01:16:15;;;;;;;10.32;5.85;;;;;;;;;;5007076;28;20671;-65
2022/09/30 01:19:04;;;;;;;7.85;5.45;;;;;;;;;;5007754;28;20057;-68
2022/09/30 01:21:43;;;;;;;17.67;5.63;;;;;;;;;;5011743;28;20045;-67
2022/09/30 01:24:24;;;;;;;13.55;5.85;;;;;;;;;;5012585;28;20117;-66
2022/09/30 01:26:57;;;;;;;11.02;5.70;;;;;;;;;;5001823;28;20042;-67
2022/09/30 01:29:39;;;;;;;9.27;5.30;;;;;;;;;;5006671;28;20048;-67
2022/09/30 01:32:24;;;;;;;8.65;4.97;;;;;;;;;;5008652;28;20076;-68
2022/09/30 01:35:00;;;;;;;11.30;5.50;;;;;;;;;;4997692;28;20061;-66
2022/09/30 01:37:49;;;;;;;13.07;5.60;;;;;;;;;;5008370;28;20490;-67
2022/09/30 01:40:22;;;;;;;11.65;5.55;;;;;;;;;;5008515;28;20045;-67
2022/09/30 01:43:01;;;;;;;12.30;5.57;;;;;;;;;;5009070;28;20315;-68
2022/09/30 01:45:41;;;;;;;11.90;5.32;;;;;;;;;;5006725;28;20038;-66
2022/09/30 01:48:10;;;;;;;11.43;5.32;;;;;;;;;;5007342;28;20036;-67
2022/09/30 01:50:48;;;;;;;10.15;4.93;;;;;;;;;;5008591;28;20119;-67
2022/09/30 01:53:29;;;;;;;9.93;5.50;;;;;;;;;;5007236;28;20203;-67
2022/09/30 01:55:55;;;;;;;11.95;5.25;;;;;;;;;;4993333;28;20131;-67
2022/09/30 01:58:25;;;;;;;14.82;5.40;;;;;;;;;;5009496;28;20041;-67
2022/09/30 02:00:55;;;;;;;7.93;4.57;;;;;;;;;;5010454;28;20037;-67
2022/09/30 02:03:30;;;;;;;9.93;5.57;;;;;;;;;;5008806;28;20508;-66
2022/09/30 02:06:05;;;;;;;12.07;6.15;;;;;;;;;;5009681;28;20045;-66
2022/09/30 02:08:38;;;;;;;10.45;5.07;;;;;;;;;;5008776;28;20160;-67
2022/09/30 02:11:08;;;;;;;10.27;5.68;;;;;;;;;;5010934;28;20048;-67
2022/09/30 02:13:39;;;;;;;13.38;5.30;;;;;;;;;;5006787;28;20042;-66
2022/09/30 02:16:11;;;;;;;11.70;5.70;;;;;;;;;;5010181;28;21348;-66
2022/09/30 02:18:40;;;;;;;10.15;5.45;;;;;;;;;;5009204;28;20052;-67
2022/09/30 02:21:09;;;;;;;10.57;5.22;;;;;;;;;;5011154;28;20060;-66
2022/09/30 02:23:40;;;;;;;9.75;5.55;;;;;;;;;;5007594;28;20037;-67
2022/09/30 02:26:09;;;;;;;9.82;5.63;;;;;;;;;;4992146;28;20789;-64
2022/09/30 02:28:38;;;;;;;15.10;5.72;;;;;;;;;;5006570;28;20038;-65
2022/09/30 02:31:05;;;;;;;12.73;5.75;;;;;;;;;;5007994;28;20049;-61
2022/09/30 02:33:53;;;;;;;10.57;5.60;;;;;;;;;;5005699;28;20038;-66
2022/09/30 02:36:20;;;;;;;11.10;5.70;;;;;;;;;;5008065;28;20058;-66
2022/09/30 02:38:49;;;;;;;9.55;4.90;;;;;;;;;;5006895;28;20050;-65
2022/09/30 02:41:22;;;;;;;10.30;5.35;;;;;;;;;;5008245;28;20052;-67
2022/09/30 02:43:49;;;;;;;11.77;4.68;;;;;;;;;;5001823;28;20041;-66
2022/09/30 02:46:15;;;;;;;13.32;5.85;;;;;;;;;;5008146;28;20064;-67
2022/09/30 02:48:48;;;;;;;12.90;5.53;;;;;;;;;;5006671;28;20462;-66
2022/09/30 02:51:22;;;;;;;12.95;5.35;;;;;;;;;;5006026;28;20056;-67
2022/09/30 02:53:48;;;;;;;14.32;4.95;;;;;;;;;;5005636;28;20542;-66
2022/09/30 02:56:15;;;;;;;9.52;4.85;;;;;;;;;;5006516;28;20073;-65
2022/09/30 02:58:42;;;;;;;10.32;5.38;;;;;;;;;;5005517;28;20494;-66
2022/09/30 03:01:10;;;;;;;14.80;5.28;;;;;;;;;;5008544;28;20046;-66
2022/09/30 03:03:51;;;;;;;8.18;4.25;;;;;;;;;;5006963;28;20168;-66
2022/09/30 03:06:18;;;;;;;10.30;5.13;;;;;;;;;;5009187;28;20822;-66
2022/09/30 03:08:45;;;;;;;11.38;4.93;;;;;;;;;;5006665;28;20392;-67
2022/09/30 03:11:15;;;;;;;12.55;5.18;;;;;;;;;;5011042;28;20082;-66
2022/09/30 03:14:00;;;;;;;10.18;5.20;;;;;;;;;;5005358;28;20290;-67
2022/09/30 03:16:26;;;;;;;9.65;5.32;;;;;;;;;;5006262;28;20045;-66
2022/09/30 03:19:05;;;;;;;11.50;5.45;;;;;;;;;;5007646;28;20168;-66
2022/09/30 03:21:44;;;;;;;12.13;5.45;;;;;;;;;;5008183;28;20045;-65
2022/09/30 03:24:29;;;;;;;9.05;5.35;;;;;;;;;;5006582;28;20047;-66
2022/09/30 03:26:55;;;;;;;9.43;4.97;;;;;;;;;;5006768;28;21193;-67
2022/09/30 03:29:22;;;;;;;8.07;3.55;;;;;;;;;;5005501;28;20120;-67
2022/09/30 03:32:10;;;;;;;6.28;4.00;;;;;;;;;;5004988;28;20375;-65
2022/09/30 03:34:37;;;;;;;11.30;4.78;;;;;;;;;;5000314;28;21716;-64
2022/09/30 03:37:12;;;;;;;11.02;5.85;;;;;;;;;;5005108;28;20040;-65
2022/09/30 03:40:01;;;;;;;9.73;5.45;;;;;;;;;;5005144;28;20069;-65
2022/09/30 03:42:32;;;;;;;9.60;4.82;;;;;;;;;;5004359;28;20073;-66
2022/09/30 03:44:59;;;;;;;10.48;5.18;;;;;;;;;;4993527;28;20042;-66
2022/09/30 03:47:28;;;;;;;10.05;4.88;;;;;;;;;;5003559;28;20046;-66
2022/09/30 03:49:58;;;;;;;7.95;5.07;;;;;;;;;;5006401;28;20058;-66
2022/09/30 03:52:25;;;;;;;10.80;4.25;;;;;;;;;;5004731;28;20033;-65
2022/09/30 03:54:55;;;;;;;15.90;5.15;;;;;;;;;;5006423;28;20045;-65
2022/09/30 03:57:21;;;;;;;10.07;5.32;;;;;;;;;;5005064;28;20057;-66
2022/09/30 03:59:49;;;;;;;9.23;5.20;;;;;;;;;;4993801;28;20060;-65
2022/09/30 04:02:15;;;;;;;10.93;5.20;;;;;;;;;;4990843;28;20072;-66
2022/09/30 04:04:42;;;;;;;13.13;5.07;;;;;;;;;;4984365;28;20133;-66
2022/09/30 04:07:09;;;;;;;9.35;5.32;;;;;;;;;;5006262;28;20037;-66
2022/09/30 04:09:37;;;;;;;10.75;5.78;;;;;;;;;;5003506;28;20041;-65
2022/09/30 04:12:04;;;;;;;11.63;5.30;;;;;;;;;;5007443;28;20538;-66
2022/09/30 04:14:31;;;;;;;12.55;5.30;;;;;;;;;;5004236;28;20057;-66
2022/09/30 04:16:58;;;;;;;9.77;4.18;;;;;;;;;;5007290;28;20038;-65
2022/09/30 04:19:24;;;;;;;9.60;5.20;;;;;;;;;;5004766;28;20438;-64
2022/09/30 04:21:54;;;;;;;11.23;5.38;;;;;;;;;;5001464;28;20121;-64
2022/09/30 04:24:22;;;;;;;9.90;4.32;;;;;;;;;;5002831;28;20541;-66
2022/09/30 04:26:49;;;;;;;8.50;5.15;;;;;;;;;;5005775;28;20037;-65
2022/09/30 04:29:15;;;;;;;8.82;4.60;;;;;;;;;;5004451;28;20042;-65
2022/09/30 04:31:42;;;;;;;14.05;5.43;;;;;;;;;;5004522;28;20033;-64
2022/09/30 04:34:10;;;;;;;10.50;4.95;;;;;;;;;;5003972;28;20034;-65
2022/09/30 04:36:36;;;;;;;12.90;5.45;;;;;;;;;;5004602;28;20065;-65
2022/09/30 04:39:03;;;;;;;9.23;5.13;;;;;;;;;;5006111;28;20084;-64
2022/09/30 04:41:31;;;;;;;9.57;5.05;;;;;;;;;;5003498;28;20601;-64
2022/09/30 04:43:57;;;;;;;10.38;5.40;;;;;;;;;;5004999;28;20037;-65
2022/09/30 04:46:24;;;;;;;12.43;5.80;;;;;;;;;;5005242;28;20660;-66
2022/09/30 04:48:51;;;;;;;11.20;5.38;;;;;;;;;;5004833;28;20172;-66
2022/09/30 04:51:19;;;;;;;11.23;5.35;;;;;;;;;;5004628;28;20124;-67
2022/09/30 04:53:46;;;;;;;8.30;4.53;;;;;;;;;;4986425;28;20581;-68
2022/09/30 04:56:13;;;;;;;12.85;5.60;;;;;;;;;;5004160;28;20050;-67
2022/09/30 04:58:40;;;;;;;11.90;5.20;;;;;;;;;;5002983;28;20054;-67
2022/09/30 05:01:11;;;;;;;9.57;5.05;;;;;;;;;;5004104;28;20069;-68
2022/09/30 05:03:38;;;;;;;8.48;5.05;;;;;;;;;;5005084;28;20045;-66
2022/09/30 05:06:05;;;;;;;7.47;4.57;;;;;;;;;;5008689;28;20084;-65
2022/09/30 05:08:32;;;;;;;7.75;4.70;;;;;;;;;;5007703;28;20061;-67
2022/09/30 05:11:00;;;;;;;11.63;4.82;;;;;;;;;;5008317;28;20439;-67
2022/09/30 05:13:30;;;;;;;10.45;5.22;;;;;;;;;;4992009;28;20893;-67
2022/09/30 05:15:57;;;;;;;9.27;4.63;;;;;;;;;;4992291;28;20709;-66
2022/09/30 05:18:27;;;;;;;6.38;3.72;;;;;;;;;;5007910;28;20042;-67
2022/09/30 05:20:54;;;;;;;11.50;5.20;;;;;;;;;;5008497;28;20574;-66
2022/09/30 05:23:21;;;;;;;7.82;4.35;;;;;;;;;;5007214;28;20535;-67
2022/09/30 05:25:48;;;;;;;10.38;4.20;;;;;;;;;;5007233;28;20175;-66
2022/09/30 05:28:14;;;;;;;6.43;4.25;;;;;;;;;;5007987;28;20391;-66
2022/09/30 05:30:42;;;;;;;13.65;5.28;;;;;;;;;;5007631;28;20880;-66
2022/09/30 05:33:09;;;;;;;9.50;5.40;;;;;;;;;;5007896;28;20123;-67
2022/09/30 05:35:36;;;;;;;10.95;4.38;;;;;;;;;;5006969;28;20074;-67
2022/09/30 05:38:03;;;;;;;10.02;4.35;;;;;;;;;;5007633;28;20109;-66
2022/09/30 05:40:31;;;;;;;11.38;5.25;;;;;;;;;;5007629;28;20204;-67
2022/09/30 05:42:58;;;;;;;11.82;4.70;;;;;;;;;;5007917;28;20490;-66
2022/09/30 05:45:25;;;;;;;9.35;4.50;;;;;;;;;;5007052;28;20502;-67
2022/09/30 05:47:54;;;;;;;11.20;5.53;;;;;;;;;;5008094;28;20069;-66
2022/09/30 05:50:22;;;;;;;10.90;4.82;;;;;;;;;;5007880;28;20034;-67
2022/09/30 05:52:48;;;;;;;9.63;4.53;;;;;;;;;;4997742;28;20037;-67
2022/09/30 05:55:16;;;;;;;7.50;4.75;;;;;;;;;;5007591;28;20053;-67
2022/09/30 05:57:45;;;;;;;9.75;4.88;;;;;;;;;;5008028;28;20136;-67
2022/09/30 06:00:11;;;;;;;7.80;4.85;;;;;;;;;;5009910;28;20052;-67
2022/09/30 06:02:38;;;;;;;9.95;4.65;;;;;;;;;;5007094;28;21730;-68
2022/09/30 06:05:05;;;;;;;14.80;4.93;;;;;;;;;;5008512;28;20042;-66
2022/09/30 06:07:35;;;;;;;9.55;5.15;;;;;;;;;;5008049;28;20706;-68
2022/09/30 06:10:06;;;;;;;10.70;4.63;;;;;;;;;;4996312;28;20034;-67
2022/09/30 06:12:34;;;;;;;9.45;4.88;;;;;;;;;;5006370;28;20184;-66
2022/09/30 06:15:02;;;;;;;10.15;4.45;;;;;;;;;;5010310;28;20076;-67
2022/09/30 06:17:28;;;;;;;8.95;4.65;;;;;;;;;;5008463;28;20401;-66
2022/09/30 06:19:55;;;;;;;11.77;5.47;;;;;;;;;;5008310;28;20042;-66
2022/09/30 06:22:22;;;;;;;8.50;4.53;;;;;;;;;;5008173;28;20130;-66
2022/09/30 06:24:49;;;;;;;8.85;4.55;;;;;;;;;;4997815;28;20053;-67
2022/09/30 06:27:15;;;;;;;8.95;5.13;;;;;;;;;;4992002;28;20038;-67
2022/09/30 06:29:42;;;;;;;7.80;4.82;;;;;;;;;;5009131;28;20502;-67
2022/09/30 06:32:08;;;;;;;11.50;4.75;;;;;;;;;;4993246;28;20049;-68
2022/09/30 06:34:35;;;;;;;7.72;4.47;;;;;;;;;;5011741;28;20053;-67
2022/09/30 06:37:02;;;;;;;9.70;4.90;;;;;;;;;;5014164;28;20040;-68
2022/09/30 06:39:28;;;;;;;10.00;5.13;;;;;;;;;;5009423;28;20073;-68
2022/09/30 06:41:55;;;;;;;6.70;4.15;;;;;;;;;;4990530;28;20756;-66
2022/09/30 06:44:21;;;;;;;10.40;4.93;;;;;;;;;;5007606;28;20046;-66
2022/09/30 06:46:48;;;;;;;9.02;4.38;;;;;;;;;;5007794;28;20049;-66
2022/09/30 06:49:15;;;;;;;9.82;4.72;;;;;;;;;;5008169;28;20041;-67
2022/09/30 06:51:41;;;;;;;12.38;5.60;;;;;;;;;;5005681;28;20117;-67
2022/09/30 06:54:08;;;;;;;10.05;4.57;;;;;;;;;;5007223;28;20046;-67
2022/09/30 06:56:35;;;;;;;8.80;4.97;;;;;;;;;;5006652;28;20223;-66
2022/09/30 06:59:05;;;;;;;9.30;5.15;;;;;;;;;;4995026;28;20097;-68
2022/09/30 07:01:32;;;;;;;10.15;4.75;;;;;;;;;;5007718;28;20678;-68
2022/09/30 07:04:02;;;;;;;10.15;5.50;;;;;;;;;;5008198;28;20034;-68
2022/09/30 07:06:28;;;;;;;9.38;4.78;;;;;;;;;;5005481;28;20034;-66
2022/09/30 07:08:55;;;;;;;7.53;4.22;;;;;;;;;;5008503;28;20037;-67
2022/09/30 07:11:22;;;;;;;7.63;4.07;;;;;;;;;;4997014;28;20042;-66
2022/09/30 07:13:49;;;;;;;12.60;5.30;;;;;;;;;;5007621;28;20099;-66
2022/09/30 07:16:17;;;;;;;12.90;5.15;;;;;;;;;;5007107;28;20107;-66
2022/09/30 07:18:44;;;;;;;13.02;4.78;;;;;;;;;;5007843;28;20579;-65
2022/09/30 07:21:14;;;;;;;8.82;5.10;;;;;;;;;;5007575;28;20045;-66
2022/09/30 07:23:47;;;;;;;9.63;4.82;;;;;;;;;;5004802;28;20041;-66
2022/09/30 07:26:15;;;;;;;11.80;5.65;;;;;;;;;;5006310;28;20041;-66
2022/09/30 07:28:42;;;;;;;11.32;4.43;;;;;;;;;;5006142;28;20525;-66
2022/09/30 07:31:19;;;;;;;9.60;5.28;;;;;;;;;;5006644;28;20123;-65
2022/09/30 07:33:46;;;;;;;10.05;4.25;;;;;;;;;;5003933;28;20173;-68
2022/09/30 07:36:14;;;;;;;9.98;4.97;;;;;;;;;;5007291;28;20465;-67
2022/09/30 07:38:42;;;;;;;11.30;5.05;;;;;;;;;;5005686;28;20047;-66
2022/09/30 07:41:13;;;;;;;11.13;5.47;;;;;;;;;;5006873;28;20092;-65
2022/09/30 07:43:42;;;;;;;10.07;5.30;;;;;;;;;;5004732;28;20048;-67
2022/09/30 07:46:09;;;;;;;9.27;5.32;;;;;;;;;;5006837;28;20129;-66
2022/09/30 07:48:43;;;;;;;9.85;5.30;;;;;;;;;;5006045;28;20048;-67
2022/09/30 07:51:11;;;;;;;10.10;4.63;;;;;;;;;;5006372;28;20041;-66
2022/09/30 07:53:37;;;;;;;9.75;4.32;;;;;;;;;;5005613;28;20210;-66
2022/09/30 07:56:05;;;;;;;8.25;4.97;;;;;;;;;;5006297;28;20049;-67
2022/09/30 07:58:31;;;;;;;11.43;5.40;;;;;;;;;;5006138;28;20288;-67
2022/09/30 08:00:58;;;;;;;7.72;5.13;;;;;;;;;;4988477;28;20033;-66
2022/09/30 08:03:25;;;;;;;8.88;5.15;;;;;;;;;;5005583;28;20045;-66
2022/09/30 08:05:51;;;;;;;9.95;5.53;;;;;;;;;;5007235;28;20041;-67
2022/09/30 08:08:18;;;;;;;10.13;5.25;;;;;;;;;;5006473;28;20077;-66
2022/09/30 08:10:45;;;;;;;8.90;5.57;;;;;;;;;;4991923;28;20065;-67
2022/09/30 08:13:15;;;;;;;9.60;4.60;;;;;;;;;;5006493;28;20052;-67
2022/09/30 08:15:42;;;;;;;13.30;5.85;;;;;;;;;;5005037;28;21126;-67
2022/09/30 08:18:09;;;;;;;10.00;5.35;;;;;;;;;;5004889;28;20050;-68
2022/09/30 08:20:35;;;;;;;8.23;5.25;;;;;;;;;;4986879;28;20162;-67
2022/09/30 08:23:02;;;;;;;11.23;5.65;;;;;;;;;;5005207;28;20048;-66
2022/09/30 08:25:28;;;;;;;10.05;5.47;;;;;;;;;;5005967;28;20521;-66
2022/09/30 08:27:55;;;;;;;9.18;5.45;;;;;;;;;;5004860;28;20046;-67
2022/09/30 08:30:22;;;;;;;10.00;5.15;;;;;;;;;;5006587;28;20089;-66
2022/09/30 08:32:48;;;;;;;8.32;5.20;;;;;;;;;;5007197;28;20574;-66
2022/09/30 08:35:15;;;;;;;8.68;5.32;;;;;;;;;;5006428;28;20057;-66
2022/09/30 08:37:42;;;;;;;9.23;5.35;;;;;;;;;;5006646;28;20398;-66
2022/09/30 08:40:18;;;;;;;15.68;5.28;;;;;;;;;;5009713;28;20474;-65
2022/09/30 08:42:47;;;;;;;13.18;6.10;;;;;;;;;;5003263;28;20072;-65
2022/09/30 08:45:17;;;;;;;7.80;4.20;;;;;;;;;;5010581;28;20794;-66
2022/09/30 08:47:48;;;;;;;7.93;4.80;;;;;;;;;;5010482;28;20042;-65
2022/09/30 08:50:24;;;;;;;11.18;6.45;;;;;;;;;;5010102;28;20041;-64
2022/09/30 08:53:03;;;;;;;10.10;4.65;;;;;;;;;;5008335;28;20136;-66
2022/09/30 08:55:41;;;;;;;11.98;6.50;;;;;;;;;;5010311;28;20049;-66
2022/09/30 08:58:15;;;;;;;13.00;6.38;;;;;;;;;;5011070;28;20108;-65
2022/09/30 09:00:42;;;;;;;12.68;6.82;;;;;;;;;;5010495;28;20049;-67
2022/09/30 09:03:10;;;;;;;7.35;4.80;;;;;;;;;;5012010;28;20526;-65
2022/09/30 09:06:06;;;;;;;13.88;6.80;;;;;;;;;;5009557;28;20042;-66
2022/09/30 09:08:47;;;;;;;10.20;6.15;;;;;;;;;;4980522;28;20073;-70
2022/09/30 09:11:27;;;;;;;11.02;6.60;;;;;;;;;;5012199;28;20037;-66
2022/09/30 09:13:54;;;;;;;12.48;6.10;;;;;;;;;;5010038;28;20056;-66
2022/09/30 09:16:43;;;;;;;12.68;6.50;;;;;;;;;;5010742;28;20048;-66
2022/09/30 09:19:10;;;;;;;7.55;4.65;;;;;;;;;;4987648;28;20123;-65
2022/09/30 09:21:49;;;;;;;11.95;6.63;;;;;;;;;;5011447;28;20434;-67
2022/09/30 09:24:18;;;;;;;11.82;6.82;;;;;;;;;;5011316;28;20034;-66
2022/09/30 09:26:44;;;;;;;11.30;5.88;;;;;;;;;;4996137;28;20487;-66
2022/09/30 09:29:30;;;;;;;13.23;6.70;;;;;;;;;;5010318;28;20042;-66
2022/09/30 09:31:58;;;;;;;9.93;6.32;;;;;;;;;;5011935;28;20074;-66
2022/09/30 09:34:26;;;;;;;16.60;6.88;;;;;;;;;;5011412;28;20061;-67
2022/09/30 09:37:11;;;;;;;10.70;7.10;;;;;;;;;;4995525;28;20041;-67
2022/09/30 09:39:48;;;;;;;9.10;5.15;;;;;;;;;;4994527;28;20507;-65
2022/09/30 09:42:27;;;;;;;11.20;6.88;;;;;;;;;;4991014;28;20064;-66
2022/09/30 09:45:03;;;;;;;13.48;6.82;;;;;;;;;;5010311;28;20040;-66
2022/09/30 09:47:29;;;;;;;14.70;7.45;;;;;;;;;;5008065;28;20351;-66
2022/09/30 09:50:03;;;;;;;13.48;6.90;;;;;;;;;;5009579;28;20040;-66
2022/09/30 09:52:39;;;;;;;12.30;7.65;;;;;;;;;;5006994;28;20038;-67
2022/09/30 09:55:06;;;;;;;12.63;7.10;;;;;;;;;;5009065;28;20116;-67
2022/09/30 09:57:32;;;;;;;13.75;7.72;;;;;;;;;;4991124;28;20222;-67
2022/09/30 10:01:04;;;;;;;16.15;7.22;;;;;;;;;;5007767;28;20041;-67
2022/09/30 10:02:59;;;;;;;10.30;6.85;;;;;;;;;;5007538;28;20145;-67
2022/09/30 10:05:26;;;;;;;12.35;6.88;;;;;;;;;;5006818;28;20041;-67
2022/09/30 10:08:08;;;;;;;11.43;5.70;;;;;;;;;;5008946;28;20061;-66
2022/09/30 10:10:43;;;;;;;12.88;6.85;;;;;;;;;;5008623;28;20057;-67
2022/09/30 10:13:19;;;;;;;11.75;7.15;;;;;;;;;;5008910;28;20533;-67
2022/09/30 10:15:46;;;;;;;11.95;6.95;;;;;;;;;;5006713;28;20046;-67
2022/09/30 10:18:18;;;;;;;10.10;5.80;;;;;;;;;;5008038;28;20120;-66
2022/09/30 10:20:50;;;;;;;13.05;7.03;;;;;;;;;;5008064;28;20439;-65
2022/09/30 10:23:21;;;;;;;10.65;6.22;;;;;;;;;;5007748;28;20049;-66
2022/09/30 10:26:02;;;;;;;13.63;7.55;;;;;;;;;;5008616;28;20048;-66
2022/09/30 10:28:31;;;;;;;13.50;6.70;;;;;;;;;;4990535;28;20395;-66
2022/09/30 10:30:58;;;;;;;13.07;7.15;;;;;;;;;;4995845;28;20037;-66
2022/09/30 10:33:42;;;;;;;10.88;6.43;;;;;;;;;;4989225;28;20128;-66
2022/09/30 10:36:11;;;;;;;13.95;7.18;;;;;;;;;;4992735;28;20046;-66
2022/09/30 10:38:45;;;;;;;12.75;7.57;;;;;;;;;;5007751;28;20104;-67
2022/09/30 10:41:12;;;;;;;13.60;7.15;;;;;;;;;;5006319;28;20589;-67
2022/09/30 10:43:49;;;;;;;10.65;6.28;;;;;;;;;;4989985;28;20608;-66
2022/09/30 10:46:27;;;;;;;12.32;7.20;;;;;;;;;;5007861;28;20034;-66
2022/09/30 10:48:55;;;;;;;12.38;7.55;;;;;;;;;;5006008;28;20065;-66
2022/09/30 10:51:24;;;;;;;11.68;5.35;;;;;;;;;;5010533;28;20111;-66
2022/09/30 10:53:50;;;;;;;11.55;7.30;;;;;;;;;;5008776;28;20136;-66
2022/09/30 10:56:36;;;;;;;13.60;7.13;;;;;;;;;;5008944;28;20045;-66
2022/09/30 10:59:04;;;;;;;11.25;7.38;;;;;;;;;;5008637;28;20053;-65
2022/09/30 11:01:34;;;;;;;16.27;8.13;;;;;;;;;;5008408;28;20401;-66
2022/09/30 11:04:19;;;;;;;16.80;8.55;;;;;;;;;;4994692;28;20046;-66
2022/09/30 11:06:47;;;;;;;14.75;8.23;;;;;;;;;;4985981;28;20041;-65
2022/09/30 11:09:20;;;;;;;16.15;8.32;;;;;;;;;;5009200;28;20048;-66
2022/09/30 11:11:53;;;;;;;13.45;7.82;;;;;;;;;;5008194;28;20034;-66
2022/09/30 11:14:29;;;;;;;15.50;8.52;;;;;;;;;;5008605;28;20038;-67
2022/09/30 11:16:56;;;;;;;12.88;6.85;;;;;;;;;;5006273;28;20045;-66
2022/09/30 11:19:31;;;;;;;13.98;7.32;;;;;;;;;;5005067;28;20037;-66
2022/09/30 11:22:05;;;;;;;14.00;6.78;;;;;;;;;;5006239;28;20049;-66
2022/09/30 11:24:45;;;;;;;14.88;8.45;;;;;;;;;;5004063;28;20148;-67
2022/09/30 11:27:32;;;;;;;11.95;6.40;;;;;;;;;;5006252;28;20373;-65
2022/09/30 11:30:08;;;;;;;12.02;7.35;;;;;;;;;;4986992;28;20077;-67
2022/09/30 11:32:43;;;;;;;9.75;5.95;;;;;;;;;;5006479;28;20466;-67
2022/09/30 11:35:28;;;;;;;12.75;7.90;;;;;;;;;;5005675;28;20462;-67
2022/09/30 11:38:07;;;;;;;13.07;7.78;;;;;;;;;;5006812;28;20413;-66
2022/09/30 11:40:37;;;;;;;15.25;7.20;;;;;;;;;;5006567;28;20061;-67
2022/09/30 11:43:03;;;;;;;14.80;7.47;;;;;;;;;;5007781;28;20038;-67
2022/09/30 11:45:48;;;;;;;11.13;7.20;;;;;;;;;;5003479;28;20533;-67
2022/09/30 11:48:24;;;;;;;15.43;8.88;;;;;;;;;;5006604;28;20057;-67
2022/09/30 11:51:00;;;;;;;11.70;6.40;;;;;;;;;;5007481;28;20087;-67
2022/09/30 11:53:29;;;;;;;17.35;7.00;;;;;;;;;;4993722;28;20045;-66
2022/09/30 11:55:56;;;;;;;16.48;9.18;;;;;;;;;;5007124;28;20077;-66
2022/09/30 11:58:28;;;;;;;17.63;7.82;;;;;;;;;;5004450;28;20145;-66
2022/09/30 12:01:11;;;;;;;17.45;8.75;;;;;;;;;;5006041;28;20561;-66
2022/09/30 12:03:47;;;;;;;13.60;7.65;;;;;;;;;;5005898;28;20034;-66
2022/09/30 12:06:30;;;;;;;23.33;11.30;;;;;;;;;;4995386;28;20053;-66
2022/09/30 12:08:59;;;;;;;20.98;9.18;;;;;;;;;;5006404;28;20243;-66
2022/09/30 12:11:32;;;;;;;16.65;7.55;;;;;;;;;;5008059;28;20049;-68
2022/09/30 12:14:00;;;;;;;19.27;10.73;;;;;;;;;;4991349;28;20481;-67
2022/09/30 12:16:30;;;;;;;19.38;10.45;;;;;;;;;;4987936;28;20057;-63
2022/09/30 12:19:11;;;;;;;19.70;10.55;;;;;;;;;;5009722;28;20037;-63
2022/09/30 12:21:46;;;;;;;19.77;10.02;;;;;;;;;;5008203;28;20100;-67
2022/09/30 12:24:25;;;;;;;13.10;7.72;;;;;;;;;;5007949;28;20484;-67
2022/09/30 12:26:52;;;;;;;15.90;10.02;;;;;;;;;;5009280;28;20056;-68
2022/09/30 12:32:15;;;;;;;15.02;8.35;;;;;;;;;;5010650;28;20044;-69
2022/09/30 12:35:00;;;;;;;22.10;10.43;;;;;;;;;;4996679;28;20117;-68
2022/09/30 12:37:56;;;;;;;19.65;10.13;;;;;;;;;;5009074;28;20080;-67
2022/09/30 12:40:25;;;;;;;22.60;9.55;;;;;;;;;;4995834;28;20042;-66
2022/09/30 12:42:52;;;;;;;18.17;8.75;;;;;;;;;;5008642;28;20048;-66
2022/09/30 12:45:42;;;;;;;19.90;10.48;;;;;;;;;;5011512;28;20034;-66
2022/09/30 12:48:18;;;;;;;16.77;9.40;;;;;;;;;;4965514;28;20052;-66
2022/09/30 12:50:47;;;;;;;17.10;10.07;;;;;;;;;;5010090;28;20462;-65
2022/09/30 12:53:28;;;;;;;17.45;10.50;;;;;;;;;;5009586;28;20041;-66
2022/09/30 12:55:55;;;;;;;14.63;8.75;;;;;;;;;;5008878;28;20179;-64
2022/09/30 12:58:23;;;;;;;13.07;7.97;;;;;;;;;;5010214;28;20042;-65
2022/09/30 13:01:01;;;;;;;17.67;8.85;;;;;;;;;;5008589;28;20041;-66
2022/09/30 13:03:28;;;;;;;14.30;8.52;;;;;;;;;;5010427;28;20079;-67
2022/09/30 13:06:05;;;;;;;17.70;9.85;;;;;;;;;;5009726;28;20049;-66
2022/09/30 13:08:36;;;;;;;18.08;9.95;;;;;;;;;;5007786;28;20065;-66
2022/09/30 13:11:05;;;;;;;18.20;10.10;;;;;;;;;;5008008;28;20439;-66
2022/09/30 13:13:33;;;;;;;16.48;9.80;;;;;;;;;;5008368;28;20044;-67
2022/09/30 13:16:05;;;;;;;15.48;9.85;;;;;;;;;;5010249;28;20119;-67
2022/09/30 13:18:31;;;;;;;15.52;9.80;;;;;;;;;;5009001;28;20387;-66
2022/09/30 13:21:04;;;;;;;18.15;10.13;;;;;;;;;;5013731;28;20041;-66
2022/09/30 13:23:46;;;;;;;15.45;8.02;;;;;;;;;;5009400;28;20042;-67
2022/09/30 13:26:32;;;;;;;18.92;9.65;;;;;;;;;;5008833;28;20046;-67
2022/09/30 13:29:02;;;;;;;16.25;9.35;;;;;;;;;;5007052;28;20037;-66
2022/09/30 13:31:51;;;;;;;13.10;8.25;;;;;;;;;;5008522;28;20041;-67
2022/09/30 13:34:22;;;;;;;16.80;9.57;;;;;;;;;;5007717;28;20045;-67
2022/09/30 13:36:52;;;;;;;21.00;9.35;;;;;;;;;;5009059;28;20081;-67
2022/09/30 13:39:36;;;;;;;21.67;8.45;;;;;;;;;;5007921;28;20045;-70
2022/09/30 13:42:12;;;;;;;19.52;11.07;;;;;;;;;;4991883;28;20829;-67
2022/09/30 13:44:42;;;;;;;15.40;8.63;;;;;;;;;;5008857;28;20050;-68
2022/09/30 13:47:15;;;;;;;19.15;10.77;;;;;;;;;;5009724;28;20045;-67
2022/09/30 13:49:41;;;;;;;;;;;;;;;;;;4996579;28;20038;-67
2022/09/30 13:52:15;;;;;;;16.63;8.23;;;;;;;;;;5011148;28;21210;-66
2022/09/30 13:54:46;;;;;;;17.92;10.40;;;;;;;;;;5006420;28;20037;-67
2022/09/30 13:57:17;;;;;;;27.65;12.15;;;;;;;;;;5003536;28;20058;-67
2022/09/30 13:59:55;;;;;;;20.13;10.70;;;;;;;;;;5007349;28;20049;-67
2022/09/30 14:02:22;;;;;;;21.40;10.35;;;;;;;;;;5008781;28;20120;-66
2022/09/30 14:05:07;;;;;;;18.35;10.07;;;;;;;;;;5005800;28;20041;-66
2022/09/30 14:07:36;;;;;;;19.02;10.07;;;;;;;;;;4990580;28;20613;-66
2022/09/30 14:10:21;;;;;;;27.00;10.27;;;;;;;;;;5009530;28;20065;-66
2022/09/30 14:13:06;;;;;;;17.95;10.85;;;;;;;;;;5008463;28;20049;-66
2022/09/30 14:15:33;;;;;;;26.83;11.27;;;;;;;;;;5010661;28;20049;-67
2022/09/30 14:17:59;;;;;;;20.80;11.38;;;;;;;;;;5012834;28;20106;-67
2022/09/30 14:20:30;;;;;;;21.08;10.93;;;;;;;;;;5010330;28;20040;-67
2022/09/30 14:22:57;;;;;;;20.50;10.40;;;;;;;;;;5011186;28;20116;-67
2022/09/30 14:25:23;;;;;;;20.10;10.80;;;;;;;;;;5009597;28;20033;-67
2022/09/30 14:27:55;;;;;;;20.95;10.15;;;;;;;;;;5011753;28;20116;-66
2022/09/30 14:30:23;;;;;;;17.48;9.65;;;;;;;;;;5011285;28;20695;-66
2022/09/30 14:32:52;;;;;;;21.95;9.27;;;;;;;;;;4994146;28;20516;-66
2022/09/30 14:35:19;;;;;;;17.63;10.55;;;;;;;;;;5011819;28;20037;-66
2022/09/30 14:37:48;;;;;;;16.92;9.70;;;;;;;;;;5011175;28;20038;-66
2022/09/30 14:40:19;;;;;;;19.55;10.27;;;;;;;;;;5012253;28;20033;-66
2022/09/30 14:42:47;;;;;;;21.58;10.50;;;;;;;;;;4998435;28;20034;-66
2022/09/30 14:45:28;;;;;;;17.73;9.63;;;;;;;;;;5015466;28;20034;-66
2022/09/30 14:47:57;;;;;;;20.13;10.20;;;;;;;;;;5014900;28;20075;-66
2022/09/30 14:50:30;;;;;;;16.95;8.82;;;;;;;;;;5009838;28;20084;-66
2022/09/30 14:52:59;;;;;;;18.27;11.13;;;;;;;;;;5011436;28;20948;-66
2022/09/30 14:55:25;;;;;;;17.95;9.93;;;;;;;;;;5010233;28;20045;-68
2022/09/30 14:57:53;;;;;;;20.00;10.95;;;;;;;;;;5012708;28;20038;-66
2022/09/30 15:00:35;;;;;;;16.48;8.10;;;;;;;;;;5005548;28;20052;-67